createdAt,value
2023-04-23T00:03:27.277Z,99566.13
2023-04-23T00:07:44.008Z,99562.78
2023-04-23T00:12:02.116Z,99566.41
2023-04-23T00:16:20.589Z,99566.59
2023-04-23T00:20:37.250Z,99566.72
2023-04-23T00:24:53.580Z,99560.84
2023-04-23T00:29:09.937Z,99562.59
2023-04-23T00:33:26.482Z,99563.19
2023-04-23T00:37:42.850Z,99560.25
2023-04-23T00:42:02.357Z,99555.53
2023-04-23T00:46:18.853Z,99547.53
2023-04-23T00:50:35.138Z,99552.97
2023-04-23T00:54:51.384Z,99553.06
2023-04-23T00:59:07.693Z,99549.44
2023-04-23T01:03:25.854Z,99547.88
2023-04-23T01:07:43.745Z,99551.44
2023-04-23T01:12:01.002Z,99546.28
2023-04-23T01:16:17.886Z,99547.41
2023-04-23T01:20:34.822Z,99554.81
2023-04-23T01:24:51.229Z,99553.00
2023-04-23T01:29:08.050Z,99551.19
2023-04-23T01:33:24.566Z,99551.72
2023-04-23T01:37:41.491Z,99538.56
2023-04-23T01:41:58.649Z,99542.44
2023-04-23T01:46:15.356Z,99544.63
2023-04-23T01:50:31.787Z,99539.50
2023-04-23T01:54:48.508Z,99539.34
2023-04-23T01:59:04.805Z,99545.72
2023-04-23T02:03:21.190Z,99536.03
2023-04-23T02:07:37.579Z,99542.69
2023-04-23T02:11:53.965Z,99542.63
2023-04-23T02:16:10.328Z,99534.09
2023-04-23T02:20:26.640Z,99521.09
2023-04-23T02:24:43.280Z,99532.00
2023-04-23T02:28:59.870Z,99524.91
2023-04-23T02:33:16.289Z,99523.09
2023-04-23T02:37:33.983Z,99524.00
2023-04-23T02:41:50.266Z,99520.47
2023-04-23T02:46:09.716Z,99519.00
2023-04-23T02:50:26.021Z,99516.28
2023-04-23T02:54:42.626Z,99514.16
2023-04-23T02:58:59.038Z,99523.06
2023-04-23T03:03:16.489Z,99512.19
2023-04-23T03:07:33.181Z,99517.09
2023-04-23T03:11:49.467Z,99515.22
2023-04-23T03:16:06.381Z,99512.19
2023-04-23T03:20:22.717Z,99512.53
2023-04-23T03:24:39.344Z,99511.94
2023-04-23T03:28:55.786Z,99515.25
2023-04-23T03:33:12.201Z,99512.69
2023-04-23T03:37:28.729Z,99518.06
2023-04-23T03:41:44.984Z,99519.09
2023-04-23T03:46:01.327Z,99516.28
2023-04-23T03:50:17.934Z,99521.81
2023-04-23T03:54:34.316Z,99523.44
2023-04-23T03:58:50.561Z,99530.75
2023-04-23T04:03:09.221Z,99520.66
2023-04-23T04:07:26.212Z,99522.34
2023-04-23T04:11:42.502Z,99525.19
2023-04-23T04:15:58.759Z,99529.81
2023-04-23T04:20:15.151Z,99527.75
2023-04-23T04:24:32.700Z,99525.66
2023-04-23T04:28:48.989Z,99537.97
2023-04-23T04:33:05.504Z,99536.91
2023-04-23T04:37:21.888Z,99531.06
2023-04-23T04:41:38.839Z,99528.37
2023-04-23T04:45:55.110Z,99543.41
2023-04-23T04:50:11.866Z,99537.38
2023-04-23T04:54:28.193Z,99540.91
2023-04-23T04:58:44.432Z,99541.16
2023-04-23T05:03:01.537Z,99541.06
2023-04-23T05:07:17.865Z,99543.47
2023-04-23T05:11:35.955Z,99552.78
2023-04-23T05:15:52.254Z,99541.81
2023-04-23T05:20:12.673Z,99546.66
2023-04-23T05:24:28.968Z,99547.75
2023-04-23T05:28:45.248Z,99538.72
2023-04-23T05:33:01.533Z,99547.00
2023-04-23T05:37:17.753Z,99552.34
2023-04-23T05:41:34.375Z,99551.81
2023-04-23T05:45:50.765Z,99544.25
2023-04-23T05:50:08.051Z,99550.91
2023-04-23T05:54:24.404Z,99553.13
2023-04-23T05:58:40.717Z,99547.91
2023-04-23T06:02:57.202Z,99545.69
2023-04-23T06:07:15.433Z,99553.13
2023-04-23T06:11:36.274Z,99548.16
2023-04-23T06:15:52.694Z,99559.78
2023-04-23T06:20:12.090Z,99548.50
2023-04-23T06:24:28.522Z,99557.34
2023-04-23T06:28:45.944Z,99555.44
2023-04-23T06:33:03.314Z,99557.06
2023-04-23T06:37:19.596Z,99543.53
2023-04-23T06:41:35.890Z,99550.53
2023-04-23T06:45:52.207Z,99553.47
2023-04-23T06:50:09.238Z,99552.28
2023-04-23T06:54:25.925Z,99558.19
2023-04-23T06:58:42.256Z,99555.78
2023-04-23T07:02:58.666Z,99557.59
2023-04-23T07:07:15.184Z,99539.59
2023-04-23T07:11:34.594Z,99540.75
2023-04-23T07:15:50.999Z,99534.56
2023-04-23T07:20:08.753Z,99541.47
2023-04-23T07:24:26.766Z,99532.69
2023-04-23T07:28:43.174Z,99528.94
2023-04-23T07:32:59.622Z,99526.31
2023-04-23T07:37:16.028Z,99524.44
2023-04-23T07:41:32.924Z,99523.28
2023-04-23T07:45:49.188Z,99536.72
2023-04-23T07:50:05.949Z,99535.13
2023-04-23T07:54:23.948Z,99527.13
2023-04-23T07:58:41.456Z,99525.53
2023-04-23T08:02:58.883Z,99533.69
2023-04-23T08:07:15.258Z,99518.00
2023-04-23T08:11:31.543Z,99513.66
2023-04-23T08:15:49.379Z,99506.84
2023-04-23T08:20:09.051Z,99499.94
2023-04-23T08:24:25.349Z,99506.03
2023-04-23T08:28:41.609Z,99500.50
2023-04-23T08:32:58.110Z,99497.03
2023-04-23T08:37:27.302Z,99495.34
2023-04-23T08:41:49.909Z,99490.44
2023-04-23T08:46:09.141Z,99484.44
2023-04-23T08:50:25.581Z,99483.47
2023-04-23T08:54:46.173Z,99475.56
2023-04-23T08:59:04.129Z,99471.78
2023-04-23T09:03:21.183Z,99459.91
2023-04-23T09:07:38.075Z,99471.06
2023-04-23T09:11:55.144Z,99466.97
2023-04-23T09:16:11.531Z,99466.31
2023-04-23T09:20:28.031Z,99467.47
2023-04-23T09:24:44.478Z,99457.53
2023-04-23T09:29:00.732Z,99464.19
2023-04-23T09:33:18.192Z,99455.41
2023-04-23T09:37:35.420Z,99456.75
2023-04-23T09:41:54.978Z,99450.88
2023-04-23T09:46:11.338Z,99448.69
2023-04-23T09:50:39.736Z,99443.38
2023-04-23T09:55:01.809Z,99440.69
2023-04-23T09:59:32.044Z,99438.00
2023-04-23T10:03:54.556Z,99435.03
2023-04-23T10:08:12.568Z,99422.56
2023-04-23T10:16:52.976Z,99418.56
2023-04-23T10:21:10.191Z,99416.03
2023-04-23T10:25:26.778Z,99403.91
2023-04-23T10:29:44.306Z,99399.72
2023-04-23T10:34:06.292Z,99401.88
2023-04-23T10:38:24.154Z,99404.53
2023-04-23T10:42:41.630Z,99402.59
2023-04-23T10:47:01.066Z,99397.66
2023-04-23T10:52:02.598Z,99395.34
2023-04-23T10:56:07.483Z,99384.91
2023-04-23T11:00:23.873Z,99378.31
2023-04-23T11:04:59.326Z,99375.09
2023-04-23T11:09:44.949Z,99365.00
2023-04-23T11:14:11.212Z,99384.59
2023-04-23T11:18:28.797Z,99383.16
2023-04-23T11:22:49.590Z,99374.94
2023-04-23T11:27:10.838Z,99382.53
2023-04-23T11:31:27.677Z,99373.50
2023-04-23T11:35:44.057Z,99371.28
2023-04-23T11:40:06.795Z,99366.88
2023-04-23T11:44:23.305Z,99359.28
2023-04-23T11:48:39.573Z,99357.84
2023-04-23T11:52:56.046Z,99352.97
2023-04-23T11:57:14.763Z,99340.59
2023-04-23T12:01:47.259Z,99349.69
2023-04-23T12:06:03.779Z,99336.34
2023-04-23T12:10:21.370Z,99340.09
2023-04-23T12:14:37.620Z,99332.97
2023-04-23T12:18:54.974Z,99326.22
2023-04-23T12:23:11.444Z,99325.59
2023-04-23T12:27:28.677Z,99331.41
2023-04-23T12:31:45.066Z,99318.09
2023-04-23T12:36:01.468Z,99312.56
2023-04-23T12:40:17.937Z,99316.00
2023-04-23T12:44:36.325Z,99302.91
2023-04-23T12:48:52.880Z,99294.97
2023-04-23T12:53:09.269Z,99293.41
2023-04-23T12:57:25.666Z,99299.09
2023-04-23T13:01:42.121Z,99300.81
2023-04-23T13:05:58.556Z,99297.22
2023-04-23T13:10:15.151Z,99296.19
2023-04-23T13:14:32.569Z,99282.81
2023-04-23T13:18:48.873Z,99282.06
2023-04-23T13:23:05.194Z,99262.81
2023-04-23T13:27:21.493Z,99265.25
2023-04-23T13:31:37.917Z,99265.31
2023-04-23T13:35:56.671Z,99250.59
2023-04-23T13:40:13.246Z,99243.38
2023-04-23T13:44:29.558Z,99235.00
2023-04-23T13:48:45.826Z,99219.84
2023-04-23T13:53:02.142Z,99219.03
2023-04-23T13:57:18.593Z,99226.91
2023-04-23T14:01:34.959Z,99214.63
2023-04-23T14:05:51.307Z,99208.47
2023-04-23T14:10:08.263Z,99203.75
2023-04-23T14:14:24.601Z,99197.22
2023-04-23T14:18:41.061Z,99205.56
2023-04-23T14:23:03.129Z,99202.78
2023-04-23T14:27:19.495Z,99196.59
2023-04-23T14:31:38.468Z,99197.03
2023-04-23T14:35:55.018Z,99187.44
2023-04-23T14:40:13.442Z,99188.66
2023-04-23T14:44:29.830Z,99189.81
2023-04-23T14:48:47.259Z,99199.44
2023-04-23T14:53:07.958Z,99184.97
2023-04-23T14:57:24.285Z,99179.78
2023-04-23T15:01:40.575Z,99169.44
2023-04-23T15:05:56.887Z,99173.31
2023-04-23T15:10:13.626Z,99176.09
2023-04-23T15:14:36.957Z,99191.91
2023-04-23T15:18:53.303Z,99181.25
2023-04-23T15:23:10.832Z,99183.91
2023-04-23T15:27:27.070Z,99185.28
2023-04-23T15:31:43.475Z,99180.81
2023-04-23T15:36:00.034Z,99177.53
2023-04-23T15:40:17.195Z,99172.50
2023-04-23T15:44:33.659Z,99165.19
2023-04-23T15:48:49.968Z,99161.00
2023-04-23T15:53:06.303Z,99158.53
2023-04-23T15:57:22.629Z,99158.72
2023-04-23T16:01:38.949Z,99162.00
2023-04-23T16:05:55.217Z,99153.13
2023-04-23T16:10:11.617Z,99152.56
2023-04-23T16:14:28.038Z,99152.00
2023-04-23T16:18:44.349Z,99149.72
2023-04-23T16:23:01.698Z,99153.31
2023-04-23T16:27:18.035Z,99154.47
2023-04-23T16:31:34.372Z,99147.53
2023-04-23T16:35:50.726Z,99144.53
2023-04-23T16:40:07.729Z,99141.06
2023-04-23T16:44:24.046Z,99144.62
2023-04-23T16:48:40.347Z,99144.66
2023-04-23T16:52:57.124Z,99136.97
2023-04-23T16:57:13.421Z,99142.53
2023-04-23T17:01:29.701Z,99131.13
2023-04-23T17:05:48.567Z,99142.66
2023-04-23T17:10:05.045Z,99141.31
2023-04-23T17:14:21.388Z,99134.13
2023-04-23T17:18:37.880Z,99139.09
2023-04-23T17:22:54.266Z,99131.06
2023-04-23T17:27:10.872Z,99126.91
2023-04-23T17:31:27.765Z,99132.44
2023-04-23T17:35:44.209Z,99135.16
2023-04-23T17:40:00.471Z,99129.56
2023-04-23T17:44:16.907Z,99141.53
2023-04-23T17:48:33.780Z,99140.37
2023-04-23T17:52:51.838Z,99144.16
2023-04-23T17:57:09.991Z,99144.78
2023-04-23T18:01:27.039Z,99149.56
2023-04-23T18:05:43.571Z,99158.97
2023-04-23T18:09:59.954Z,99152.63
2023-04-23T18:14:16.322Z,99161.66
2023-04-23T18:18:32.594Z,99168.03
2023-04-23T18:22:49.662Z,99168.25
2023-04-23T18:27:05.904Z,99174.16
2023-04-23T18:31:22.448Z,99171.84
2023-04-23T18:35:41.253Z,99179.94
2023-04-23T18:39:58.773Z,99186.97
2023-04-23T18:44:15.118Z,99192.06
2023-04-23T18:48:34.469Z,99192.06
2023-04-23T18:52:51.007Z,99192.91
2023-04-23T18:57:07.540Z,99193.16
2023-04-23T19:01:24.714Z,99201.88
2023-04-23T19:05:41.852Z,99198.78
2023-04-23T19:09:58.513Z,99201.78
2023-04-23T19:14:16.418Z,99198.66
2023-04-23T19:18:32.812Z,99196.03
2023-04-23T19:22:49.119Z,99192.34
2023-04-23T19:27:07.450Z,99208.75
2023-04-23T19:31:23.975Z,99213.69
2023-04-23T19:35:40.585Z,99203.06
2023-04-23T19:39:57.051Z,99202.97
2023-04-23T19:44:13.335Z,99205.88
2023-04-23T19:48:29.749Z,99195.44
2023-04-23T19:52:46.522Z,99198.72
2023-04-23T19:57:04.332Z,99189.31
2023-04-23T20:01:20.916Z,99190.72
2023-04-23T20:05:37.786Z,99185.09
2023-04-23T20:09:54.152Z,99184.59
2023-04-23T20:14:10.649Z,99194.66
2023-04-23T20:18:29.340Z,99184.28
2023-04-23T20:22:46.089Z,99184.84
2023-04-23T20:27:02.755Z,99181.88
2023-04-23T20:31:20.787Z,99178.34
2023-04-23T20:35:39.811Z,99172.38
2023-04-23T20:39:56.863Z,99169.75
2023-04-23T20:44:13.225Z,99162.50
2023-04-23T20:48:32.252Z,99159.66
2023-04-23T20:52:48.771Z,99159.38
2023-04-23T20:57:05.124Z,99159.75
2023-04-23T21:01:21.836Z,99155.81
2023-04-23T21:05:40.585Z,99164.97
2023-04-23T21:09:57.350Z,99162.25
2023-04-23T21:14:13.621Z,99164.00
2023-04-23T21:18:29.971Z,99160.03
2023-04-23T21:22:46.334Z,99160.50
2023-04-23T21:27:04.017Z,99143.25
2023-04-23T21:31:38.992Z,99135.56
2023-04-23T21:35:55.477Z,99144.47
2023-04-23T21:40:12.021Z,99140.13
2023-04-23T21:44:30.914Z,99134.28
2023-04-23T21:48:53.959Z,99126.63
2023-04-23T21:53:10.364Z,99118.25
2023-04-23T21:57:26.886Z,99123.09
2023-04-23T22:01:43.210Z,99108.72
2023-04-23T22:06:01.644Z,99114.69
2023-04-23T22:10:19.015Z,99117.44
2023-04-23T22:14:35.500Z,99104.19
2023-04-23T22:18:51.864Z,99106.88
2023-04-23T22:23:08.145Z,99103.31
2023-04-23T22:27:24.502Z,99094.91
2023-04-23T22:31:40.922Z,99092.50
2023-04-23T22:35:57.206Z,99100.31
2023-04-23T22:40:13.574Z,99090.09
2023-04-23T22:44:29.898Z,99097.84
2023-04-23T22:48:47.741Z,99091.63
2023-04-23T22:53:04.002Z,99076.50
2023-04-23T22:57:20.303Z,99076.91
2023-04-23T23:01:36.656Z,99077.25
2023-04-23T23:05:52.962Z,99071.63
2023-04-23T23:10:09.823Z,99064.50
2023-04-23T23:14:26.848Z,99060.44
2023-04-23T23:18:43.352Z,99047.97
2023-04-23T23:22:59.618Z,99036.66
2023-04-23T23:27:16.086Z,99033.41
2023-04-23T23:31:32.672Z,99039.56
2023-04-23T23:35:49.108Z,99033.47
2023-04-23T23:40:05.959Z,99032.72
2023-04-23T23:44:22.225Z,99023.44
2023-04-23T23:48:38.544Z,99025.87
2023-04-23T23:52:55.167Z,99010.56
2023-04-23T23:57:11.589Z,98992.72
